Time;durP1;ratioP1;P1;durP2;ratioP2;P2;SDS_P1;SDS_P2;PMS_P1;PMS_P2;Temp;Humidity;BMP_temperature;BMP_pressure;BME280_temperature;BME280_humidity;BME280_pressure;Samples;Min_cycle;Max_cycle;Signal;HPM_P1;HPM_P2
2023/07/24 00:04:09;;;;;;;5.95;3.17;;;;;;;-145.68;48.63;72394.63;10454590;28;20357;-65
2023/07/24 00:09:09;;;;;;;7.20;3.70;;;;;;;-145.68;49.05;72402.59;10454461;28;20219;-65
2023/07/24 00:14:09;;;;;;;7.53;3.45;;;;;;;-145.68;49.43;72420.59;10454320;28;20806;-66
2023/07/24 00:19:10;;;;;;;3.75;2.97;;;;;;;-145.68;49.95;72438.56;10454158;28;20179;-65
2023/07/24 00:24:10;;;;;;;4.97;2.97;;;;;;;-145.68;50.59;72438.56;10453828;28;20251;-67
2023/07/24 00:29:11;;;;;;;4.07;3.13;;;;;;;-145.68;51.53;72456.56;10453613;28;20701;-65
2023/07/24 00:34:11;;;;;;;5.15;3.55;;;;;;;-145.68;51.54;72448.56;10453647;28;20721;-65
2023/07/24 00:39:14;;;;;;;4.38;3.50;;;;;;;-145.68;50.68;72440.56;10435446;28;20566;-65
2023/07/24 00:44:15;;;;;;;6.32;3.80;;;;;;;-145.68;51.08;72444.56;10453247;28;20207;-67
2023/07/24 00:49:15;;;;;;;6.75;3.28;;;;;;;-145.68;50.46;72428.59;10453172;28;20708;-65
2023/07/24 00:54:16;;;;;;;4.93;3.67;;;;;;;-145.68;49.92;72402.59;10434777;28;20211;-65
2023/07/24 00:59:16;;;;;;;3.95;3.03;;;;;;;-145.68;49.95;72408.59;10434795;28;20180;-65
2023/07/24 01:04:17;;;;;;;4.65;3.20;;;;;;;-145.68;49.87;72402.59;10434407;28;20438;-65
2023/07/24 01:09:18;;;;;;;4.38;3.47;;;;;;;-145.68;49.84;72400.59;10434975;28;20212;-64
2023/07/24 01:14:24;;;;;;;3.58;3.10;;;;;;;-145.68;50.11;72402.59;10434373;28;20208;-65
2023/07/24 01:19:33;;;;;;;5.32;3.30;;;;;;;-145.68;50.38;72414.59;10452389;28;20673;-66
2023/07/24 01:24:49;;;;;;;3.92;3.15;;;;;;;-145.68;50.99;72436.56;10451883;28;20713;-66
2023/07/24 01:29:50;;;;;;;4.40;3.30;;;;;;;-145.68;51.22;72434.59;10433982;28;20213;-65
2023/07/24 01:34:51;;;;;;;6.68;3.28;;;;;;;-145.68;51.74;72442.56;10451466;28;20302;-66
2023/07/24 01:39:53;;;;;;;3.78;3.38;;;;;;;-145.68;51.87;72448.56;10451498;28;20268;-65
2023/07/24 01:44:54;;;;;;;4.57;3.47;;;;;;;-145.68;51.96;72450.56;10433981;28;20211;-65
2023/07/24 01:49:54;;;;;;;5.97;3.20;;;;;;;-145.68;51.78;72434.59;10433637;28;20219;-66
2023/07/24 01:54:55;;;;;;;4.57;3.28;;;;;;;-145.68;51.74;72424.59;10451820;28;20204;-66
2023/07/24 01:59:55;;;;;;;5.93;3.03;;;;;;;-145.68;51.83;72418.59;10433625;28;20283;-65
2023/07/24 02:04:55;;;;;;;5.32;3.33;;;;;;;-145.68;51.79;72408.59;10451451;28;20720;-66
2023/07/24 02:09:56;;;;;;;3.92;3.40;;;;;;;-145.68;51.88;72422.59;10438770;28;20306;-66
2023/07/24 02:14:57;;;;;;;4.05;3.28;;;;;;;-145.68;52.01;72432.59;10458901;28;20207;-67
2023/07/24 02:19:57;;;;;;;7.78;3.90;;;;;;;-145.68;52.24;72438.56;10459105;28;20195;-66
2023/07/24 02:24:57;;;;;;;5.03;3.55;;;;;;;-145.68;51.74;72414.59;10440489;28;20305;-66
2023/07/24 02:29:58;;;;;;;3.70;3.05;;;;;;;-145.68;51.13;72380.63;10458527;28;20223;-65
2023/07/24 02:34:58;;;;;;;5.68;3.67;;;;;;;-145.68;50.76;72360.66;10440426;28;20208;-66
2023/07/24 02:39:59;;;;;;;5.50;3.38;;;;;;;-145.68;50.35;72328.69;10440310;28;20192;-66
2023/07/24 02:45:01;;;;;;;5.13;3.75;;;;;;;-145.68;49.67;72300.69;10458257;28;20208;-65
2023/07/24 02:50:04;;;;;;;4.70;3.75;;;;;;;-145.68;49.71;72304.69;10439857;28;20311;-66
2023/07/24 02:55:04;;;;;;;4.95;3.17;;;;;;;-145.68;49.50;72300.69;10457745;28;20207;-66
2023/07/24 03:00:05;;;;;;;8.45;3.53;;;;;;;-145.68;49.80;72320.69;10439366;28;20558;-66
2023/07/24 03:05:06;;;;;;;5.35;3.70;;;;;;;-145.68;48.91;72284.72;10438849;28;20204;-66
2023/07/24 03:10:07;;;;;;;4.45;3.40;;;;;;;-145.68;48.47;72270.72;10456942;28;20215;-65
2023/07/24 03:15:08;;;;;;;9.27;4.13;;;;;;;-145.68;48.53;72276.72;10456589;28;20212;-67
2023/07/24 03:20:12;;;;;;;4.57;3.50;;;;;;;-145.68;48.27;72260.72;10438290;28;20195;-65
2023/07/24 03:25:13;;;;;;;5.35;3.88;;;;;;;-145.68;47.88;72240.75;10438204;28;20262;-66
2023/07/24 03:30:13;;;;;;;4.75;3.72;;;;;;;-145.68;47.95;72238.75;10456152;28;20311;-66
2023/07/24 03:35:14;;;;;;;4.57;3.53;;;;;;;-145.68;48.03;72240.75;10455913;28;20208;-66
2023/07/24 03:40:15;;;;;;;5.72;3.30;;;;;;;-145.68;47.97;72232.75;10437928;28;20184;-66
2023/07/24 03:45:15;;;;;;;7.97;4.10;;;;;;;-145.68;48.04;72218.78;10462601;28;20585;-66
2023/07/24 03:50:16;;;;;;;4.22;3.50;;;;;;;-145.68;48.05;72216.78;10455196;28;20211;-65
2023/07/24 03:55:16;;;;;;;5.50;3.53;;;;;;;-145.68;47.77;72184.81;10455233;28;20269;-65
2023/07/24 04:00:18;;;;;;;4.40;3.40;;;;;;;-145.68;47.86;72188.81;10454717;28;20662;-67
2023/07/24 04:05:18;;;;;;;5.88;3.40;;;;;;;-145.68;47.54;72174.81;10454748;28;20722;-66
2023/07/24 04:10:19;;;;;;;3.97;3.33;;;;;;;-145.68;47.44;72176.81;10454442;28;20223;-65
2023/07/24 04:15:19;;;;;;;3.90;3.35;;;;;;;-145.68;47.61;72176.81;10454310;28;20203;-65
2023/07/24 04:20:19;;;;;;;4.97;3.40;;;;;;;-145.68;47.27;72168.81;10454164;28;20203;-66
2023/07/24 04:25:20;;;;;;;5.03;3.25;;;;;;;-145.68;47.17;72148.84;10453747;28;20701;-66
2023/07/24 04:30:20;;;;;;;4.32;3.45;;;;;;;-145.68;47.12;72146.84;10453088;28;20289;-66
2023/07/24 04:35:21;;;;;;;3.95;3.03;;;;;;;-145.68;47.15;72140.84;10453578;28;20305;-66
2023/07/24 04:40:21;;;;;;;4.07;3.17;;;;;;;-145.68;47.21;72136.84;10453526;28;20190;-66
2023/07/24 04:45:21;;;;;;;4.93;3.28;;;;;;;-145.68;47.12;72140.84;10453149;28;20260;-66
2023/07/24 04:50:22;;;;;;;4.03;2.97;;;;;;;-145.68;46.99;72124.88;10453026;28;20219;-66
2023/07/24 04:55:22;;;;;;;3.60;2.92;;;;;;;-145.68;47.21;72140.84;10452986;28;20234;-66
2023/07/24 05:00:23;;;;;;;4.20;3.13;;;;;;;-145.68;47.45;72144.84;10452887;28;20237;-67
2023/07/24 05:05:23;;;;;;;5.13;3.40;;;;;;;-145.68;46.87;72104.88;10452827;28;20321;-66
2023/07/24 05:10:23;;;;;;;4.38;3.28;;;;;;;-145.68;47.14;72092.91;10452473;28;20223;-66
2023/07/24 05:15:24;;;;;;;5.45;3.40;;;;;;;-145.68;47.62;72098.88;10452428;28;20211;-66
2023/07/24 05:20:24;;;;;;;4.93;3.45;;;;;;;-145.68;47.59;72086.91;10452263;28;20229;-66
2023/07/24 05:25:24;;;;;;;6.22;3.50;;;;;;;-145.68;47.14;72056.94;10462632;22;20248;-70
2023/07/24 05:30:25;;;;;;;3.95;3.53;;;;;;;-145.68;46.35;72020.97;10408712;28;20278;-71
2023/07/24 05:35:25;;;;;;;5.63;3.70;;;;;;;-145.68;46.78;72024.97;10421585;28;20210;-72
2023/07/24 05:40:26;;;;;;;4.90;3.17;;;;;;;-145.68;46.03;72006.97;10403305;28;20597;-72
2023/07/24 05:45:27;;;;;;;4.53;3.53;;;;;;;-145.68;46.67;71991.00;10377698;28;20212;-73
2023/07/24 05:50:27;;;;;;;4.40;3.63;;;;;;;-145.68;45.57;71961.03;10378146;28;20213;-72
2023/07/24 05:55:27;;;;;;;5.43;3.17;;;;;;;-145.68;45.10;71935.03;10377541;28;20216;-72
2023/07/24 06:00:28;;;;;;;4.95;3.50;;;;;;;-145.68;44.48;71921.06;10377590;28;20204;-73
2023/07/24 06:05:28;;;;;;;4.60;3.25;;;;;;;-145.68;44.26;71889.09;10387550;28;20205;-73
2023/07/24 06:10:28;;;;;;;4.53;3.50;;;;;;;-145.68;43.43;71915.06;10417005;28;20265;-72
2023/07/24 06:15:29;;;;;;;4.70;3.72;;;;;;;-145.68;44.37;71899.09;10418037;28;20275;-72
2023/07/24 06:20:29;;;;;;;5.40;3.53;;;;;;;-145.68;43.77;71829.16;10417634;28;20654;-72
2023/07/24 06:25:31;;;;;;;4.03;3.28;;;;;;;-145.68;43.57;71855.13;10417628;28;20577;-72
2023/07/24 06:30:31;;;;;;;4.57;3.47;;;;;;;-145.68;43.79;71849.13;10417226;28;20221;-72
2023/07/24 06:35:32;;;;;;;3.88;3.47;;;;;;;-145.68;43.98;71887.09;10417363;28;20212;-71
2023/07/24 06:40:32;;;;;;;4.75;3.40;;;;;;;-145.68;43.69;71863.13;10415816;28;20189;-72
2023/07/24 06:45:32;;;;;;;6.03;3.15;;;;;;;-145.68;42.91;71817.16;10416799;28;20359;-73
2023/07/24 06:50:33;;;;;;;5.18;3.78;;;;;;;-145.68;43.22;71863.13;10416494;28;20224;-72
2023/07/24 06:55:33;;;;;;;4.32;3.38;;;;;;;-145.68;43.49;71819.16;10415390;28;20295;-73
2023/07/24 07:00:33;;;;;;;5.25;3.60;;;;;;;-145.68;43.26;71763.22;10416316;28;20196;-73
2023/07/24 07:05:34;;;;;;;6.22;3.83;;;;;;;-145.68;43.44;71763.22;10415213;28;20269;-72
2023/07/24 07:10:34;;;;;;;7.15;3.95;;;;;;;-145.68;43.09;71689.31;10414345;28;20204;-72
2023/07/24 07:15:35;;;;;;;5.68;3.75;;;;;;;-145.68;41.41;71683.31;10410981;28;20208;-71
2023/07/24 07:20:35;;;;;;;5.40;3.70;;;;;;;-145.68;42.30;71679.31;10412220;28;20184;-72
2023/07/24 07:25:36;;;;;;;5.03;3.95;;;;;;;-145.68;42.35;71671.31;10412933;28;20240;-72
2023/07/24 07:30:36;;;;;;;5.93;4.20;;;;;;;-145.68;41.31;71609.38;10414347;28;20320;-72
2023/07/24 07:35:37;;;;;;;6.18;4.50;;;;;;;-145.68;38.57;71493.50;10414256;28;20216;-71
2023/07/24 07:40:38;;;;;;;5.55;4.47;;;;;;;-145.68;38.36;71427.59;10412165;28;20184;-71
2023/07/24 07:45:38;;;;;;;5.38;4.30;;;;;;;-145.68;38.47;71335.69;10412488;28;20204;-71
2023/07/24 07:50:39;;;;;;;5.97;5.03;;;;;;;-145.68;37.62;71393.63;10415601;28;20216;-72
2023/07/24 07:55:39;;;;;;;5.93;5.03;;;;;;;-145.68;38.36;71391.63;10418305;28;20254;-71
2023/07/24 08:00:40;;;;;;;7.85;5.25;;;;;;;-145.68;36.67;71331.69;10400545;28;20338;-69
2023/07/24 08:05:41;;;;;;;6.78;4.72;;;;;;;-145.68;35.70;71213.81;10412686;28;20220;-70
2023/07/24 08:10:41;;;;;;;8.63;5.70;;;;;;;-145.68;37.33;71343.69;10412989;28;20626;-71
2023/07/24 08:15:41;;;;;;;8.50;5.97;;;;;;;-145.68;38.16;71313.72;10412442;28;20212;-70
2023/07/24 08:20:42;;;;;;;11.07;7.35;;;;;;;-145.68;39.08;71361.66;10411907;28;20249;-70
2023/07/24 08:25:55;;;;;;;10.00;7.13;;;;;;;-145.68;39.59;71349.66;10411863;28;20240;-70
2023/07/24 08:30:57;;;;;;;12.07;7.60;;;;;;;-145.68;39.18;71253.78;10409838;28;20287;-70
2023/07/24 08:36:06;;;;;;;9.90;7.55;;;;;;;-145.68;39.26;71277.75;10412107;28;20216;-69
2023/07/24 08:41:08;;;;;;;10.32;6.13;;;;;;;-145.68;39.15;71233.81;10411939;28;20188;-71
2023/07/24 08:46:09;;;;;;;9.23;6.25;;;;;;;-145.68;39.95;71335.69;10411162;28;20299;-70
2023/07/24 08:51:16;;;;;;;9.55;6.70;;;;;;;-145.68;40.83;71375.66;10411425;28;20191;-71
2023/07/24 08:56:16;;;;;;;10.23;6.68;;;;;;;-145.68;40.14;71347.66;10410366;28;20224;-70
2023/07/24 09:01:17;;;;;;;9.00;6.57;;;;;;;-145.68;40.64;71299.72;10410687;28;20544;-70
2023/07/24 09:06:17;;;;;;;11.20;6.25;;;;;;;-145.68;39.85;71243.78;10410422;28;20224;-69
2023/07/24 09:11:17;;;;;;;7.95;6.35;;;;;;;-145.68;39.64;71239.81;10410342;28;20682;-71
2023/07/24 09:16:25;;;;;;;6.30;4.60;;;;;;;-145.68;38.98;71411.59;10409601;28;20255;-71
2023/07/24 09:21:29;;;;;;;6.53;5.13;;;;;;;-145.68;39.23;71465.53;10406463;28;20220;-71
2023/07/24 09:26:30;;;;;;;8.30;4.93;;;;;;;-145.68;40.15;71479.53;10407371;28;20229;-71
2023/07/24 09:31:35;;;;;;;7.25;5.40;;;;;;;-145.68;39.82;71485.53;10399668;28;20196;-72
2023/07/24 09:36:39;;;;;;;7.38;4.88;;;;;;;-145.68;40.75;71473.53;10409534;28;20212;-71
2023/07/24 09:41:39;;;;;;;9.45;5.90;;;;;;;-145.68;40.52;71465.53;10409512;28;20188;-71
2023/07/24 09:46:41;;;;;;;7.25;6.05;;;;;;;-145.68;40.35;71485.53;10409853;28;20208;-71
2023/07/24 09:51:42;;;;;;;10.88;5.55;;;;;;;-145.68;40.35;71459.53;10392575;28;20185;-71
2023/07/24 09:56:43;;;;;;;9.13;6.93;;;;;;;-145.68;40.78;71491.50;10391081;28;20564;-71
2023/07/24 10:01:43;;;;;;;9.45;6.43;;;;;;;-145.68;41.01;71425.59;10410150;28;20196;-71
2023/07/24 10:06:44;;;;;;;9.02;6.82;;;;;;;-145.68;40.34;71401.63;10408829;28;20709;-71
2023/07/24 10:11:45;;;;;;;9.95;6.43;;;;;;;-145.68;41.33;71475.53;10409369;28;20296;-70
2023/07/24 10:16:45;;;;;;;14.30;7.18;;;;;;;-145.68;41.91;71525.47;10409050;28;20201;-70
2023/07/24 10:21:50;;;;;;;8.45;6.72;;;;;;;-145.68;48.23;71737.25;10409051;28;20211;-70
2023/07/24 10:26:54;;;;;;;12.43;6.82;;;;;;;-145.68;53.27;71843.13;10407890;28;20245;-69
2023/07/24 10:31:55;;;;;;;9.43;6.72;;;;;;;-145.68;55.10;71849.13;10413980;28;20193;-69
2023/07/24 10:37:03;;;;;;;10.70;6.95;;;;;;;-145.68;54.61;71801.19;10416704;28;20577;-69
2023/07/24 10:42:08;;;;;;;13.38;7.45;;;;;;;-145.68;55.91;71835.16;10416398;28;20211;-69
2023/07/24 10:47:08;;;;;;;13.27;6.53;;;;;;;-145.68;57.68;71889.09;10415809;28;20212;-70
2023/07/24 10:52:09;;;;;;;11.82;7.65;;;;;;;-145.68;59.27;71893.09;10416123;28;20203;-70
2023/07/24 10:57:10;;;;;;;9.95;7.03;;;;;;;-145.68;59.94;71897.09;10415524;28;20208;-70
2023/07/24 11:02:10;;;;;;;9.82;6.85;;;;;;;-145.68;59.86;71813.16;10414722;28;20193;-69
2023/07/24 11:07:10;;;;;;;8.73;6.75;;;;;;;-145.68;58.53;71791.19;10414251;28;20302;-68
2023/07/24 11:12:11;;;;;;;10.60;7.50;;;;;;;-145.68;55.57;71709.28;10404522;28;20234;-68
2023/07/24 11:17:12;;;;;;;10.10;6.78;;;;;;;-145.68;52.68;71597.41;10415055;28;20212;-68
2023/07/24 11:22:12;;;;;;;9.32;6.63;;;;;;;-145.68;49.27;71503.50;10414777;28;20694;-69
2023/07/24 11:27:17;;;;;;;10.82;7.15;;;;;;;-145.68;47.90;71397.63;10443197;22;20714;-64
2023/07/24 11:32:20;;;;;;;10.52;6.32;;;;;;;-145.68;47.43;71343.69;10452226;28;20200;-65
2023/07/24 11:37:21;;;;;;;10.10;6.85;;;;;;;-145.68;46.20;71321.69;10413918;28;20228;-65
2023/07/24 11:42:21;;;;;;;7.88;5.15;;;;;;;-145.68;47.16;71445.56;10411600;28;20223;-67
2023/07/24 11:47:22;;;;;;;9.13;6.60;;;;;;;-145.68;48.01;71457.56;10411613;28;20229;-65
2023/07/24 11:52:22;;;;;;;10.35;7.57;;;;;;;-145.68;49.08;71459.53;10408839;28;20689;-64
2023/07/24 11:57:23;;;;;;;11.82;7.53;;;;;;;-145.68;49.14;71521.47;10411778;28;20579;-64
2023/07/24 12:02:27;;;;;;;12.65;8.52;;;;;;;-145.68;49.67;71525.47;10411712;28;20254;-64
2023/07/24 12:07:35;;;;;;;12.32;7.32;;;;;;;-145.68;49.35;71567.44;10406663;28;20232;-64
2023/07/24 12:12:39;;;;;;;11.85;7.32;;;;;;;-145.68;49.37;71589.41;10384804;28;21033;-65
2023/07/24 12:17:39;;;;;;;12.27;7.90;;;;;;;-145.68;49.59;71621.38;10405584;28;20224;-63
2023/07/24 12:22:40;;;;;;;12.38;8.20;;;;;;;-145.68;50.61;71681.31;10400250;28;20193;-64
2023/07/24 12:27:42;;;;;;;12.60;7.13;;;;;;;-145.68;51.01;71689.31;10408964;28;20664;-62
2023/07/24 12:32:42;;;;;;;10.95;7.25;;;;;;;-145.68;52.29;71727.25;10411394;28;20276;-65
2023/07/24 12:37:43;;;;;;;11.57;7.22;;;;;;;-145.68;54.66;71779.19;10410358;28;20215;-65
2023/07/24 12:42:43;;;;;;;12.10;8.07;;;;;;;-145.68;58.67;71883.09;10412505;28;20188;-65
2023/07/24 12:47:44;;;;;;;11.38;7.97;;;;;;;-145.68;67.90;72016.97;10434896;28;20212;-66
2023/07/24 12:52:45;;;;;;;12.73;8.75;;;;;;;-145.68;77.27;72102.88;10413532;28;20193;-66
2023/07/24 12:57:46;;;;;;;11.25;7.07;;;;;;;-145.68;86.15;72192.78;10446754;28;20296;-64
2023/07/24 13:02:46;;;;;;;11.90;7.60;;;;;;;-145.68;98.76;72230.75;10452478;28;20253;-65
2023/07/24 13:07:47;;;;;;;13.27;6.80;;;;;;;-145.68;100.00;72244.75;10436333;28;20221;-64
2023/07/24 13:19:10;;;;;;;7.90;5.80;;;;;;;-145.68;100.00;72066.91;10129164;28;20209;-64
2023/07/24 13:24:10;;;;;;;6.95;4.90;;;;;;;-145.68;100.00;72156.84;10369518;28;20193;-64
2023/07/24 13:29:11;;;;;;;8.02;5.60;;;;;;;-145.68;100.00;72110.88;10368920;28;20339;-64
2023/07/24 13:34:11;;;;;;;7.47;5.32;;;;;;;-145.68;100.00;71996.97;10369113;28;20569;-64
2023/07/24 13:39:12;;;;;;;5.88;4.38;;;;;;;-145.68;83.07;71927.06;10381834;28;20223;-63
2023/07/24 13:44:12;;;;;;;8.07;3.72;;;;;;;-145.68;77.31;71899.09;10414671;28;20195;-64
2023/07/24 13:49:12;;;;;;;7.28;4.15;;;;;;;-145.68;75.61;71819.16;10406603;28;20224;-64
2023/07/24 13:54:13;;;;;;;6.70;4.53;;;;;;;-145.68;73.80;71813.16;10410094;28;20287;-64
2023/07/24 13:59:13;;;;;;;4.10;3.60;;;;;;;-145.68;70.29;71781.19;10409527;28;20211;-64
2023/07/24 14:04:14;;;;;;;5.20;3.42;;;;;;;-145.68;70.31;71691.28;10413323;28;20189;-64
2023/07/24 14:09:14;;;;;;;4.10;3.58;;;;;;;-145.68;62.12;71583.41;10417239;28;20217;-64
2023/07/24 14:14:17;;;;;;;4.05;3.05;;;;;;;-145.68;58.46;71539.47;10416202;28;20289;-64
2023/07/24 14:19:18;;;;;;;5.25;3.70;;;;;;;-145.68;55.96;71477.53;10416657;28;20274;-63
2023/07/24 14:29:43;;;;;;;4.10;3.65;;;;;;;-145.68;51.41;71267.75;10450897;28;20228;-65
2023/07/24 14:34:44;;;;;;;7.30;4.82;;;;;;;-145.68;51.76;71411.59;10429141;28;20217;-67
2023/07/24 14:39:44;;;;;;;7.13;6.03;;;;;;;-145.68;53.74;71545.44;10416401;28;20189;-67
2023/07/24 15:04:50;;;;;;;9.77;6.90;;;;;;;-145.68;52.80;71355.66;10494100;23;20317;-65
2023/07/24 15:09:50;;;;;;;10.60;7.30;;;;;;;-145.68;52.30;71329.69;10495781;28;20446;-65
2023/07/24 15:14:51;;;;;;;12.05;6.75;;;;;;;-145.68;54.86;71417.59;10494580;28;20441;-67
2023/07/24 15:19:51;;;;;;;8.88;6.88;;;;;;;-145.68;53.81;71439.56;10495660;28;20214;-68
2023/07/24 15:24:52;;;;;;;10.18;6.65;;;;;;;-145.68;52.21;71315.72;10494529;28;20195;-70
2023/07/24 15:29:52;;;;;;;10.90;6.78;;;;;;;-145.68;50.77;71253.78;10495934;28;20239;-68
2023/07/24 15:34:52;;;;;;;11.27;7.00;;;;;;;-145.68;51.16;71229.81;10493540;28;20199;-67
2023/07/24 15:39:53;;;;;;;9.93;7.13;;;;;;;-145.68;46.67;71002.09;10493679;28;20215;-65
2023/07/24 15:51:16;;;;;;;9.45;6.90;;;;;;;-145.68;45.90;71153.91;10478354;28;20222;-70
2023/07/24 15:56:16;;;;;;;9.35;7.13;;;;;;;-145.68;45.33;71145.91;10496247;28;20207;-69
2023/07/24 16:01:18;;;;;;;10.23;7.75;;;;;;;-145.68;45.66;71197.84;10495115;28;20203;-69
2023/07/24 16:06:18;;;;;;;11.23;7.78;;;;;;;-145.68;46.36;71309.72;10496489;28;20246;-68
2023/07/24 16:11:19;;;;;;;10.23;7.50;;;;;;;-145.68;46.53;71299.72;10496248;28;20234;-69
2023/07/24 16:16:19;;;;;;;12.25;8.07;;;;;;;-145.68;46.33;71313.72;10495733;28;20560;-69
2023/07/24 16:21:20;;;;;;;9.02;6.55;;;;;;;-145.68;45.53;71307.72;10495865;28;20321;-68
2023/07/24 16:26:20;;;;;;;10.88;7.88;;;;;;;-145.68;45.77;71285.75;10495162;28;20211;-69
2023/07/24 16:31:20;;;;;;;10.02;7.90;;;;;;;-145.68;47.09;71321.69;10495671;28;20234;-70
2023/07/24 16:36:21;;;;;;;10.55;7.72;;;;;;;-145.68;48.15;71269.75;10495768;28;20203;-69
2023/07/24 16:41:21;;;;;;;10.40;7.35;;;;;;;-145.68;51.92;71305.72;10495373;28;20233;-69
2023/07/24 16:46:22;;;;;;;12.18;7.63;;;;;;;-145.68;53.49;71343.69;10495276;28;20200;-69
2023/07/24 16:51:22;;;;;;;10.80;7.88;;;;;;;-145.68;53.36;71329.69;10494574;28;20195;-69
2023/07/24 16:56:23;;;;;;;11.30;7.68;;;;;;;-145.68;53.94;71341.69;10495171;28;20213;-69
2023/07/24 17:01:24;;;;;;;9.35;7.05;;;;;;;-145.68;52.30;71355.66;10494732;28;20325;-70
2023/07/24 17:06:24;;;;;;;9.80;6.97;;;;;;;-145.68;49.27;71365.66;10494792;28;20231;-70
2023/07/24 17:11:25;;;;;;;10.82;7.60;;;;;;;-145.68;49.47;71369.66;10494419;28;20634;-70
2023/07/24 17:16:25;;;;;;;12.15;8.30;;;;;;;-145.68;49.46;71343.69;10494765;28;20631;-69
2023/07/24 17:21:25;;;;;;;8.65;7.07;;;;;;;-145.68;49.26;71361.66;10494249;28;20298;-69
2023/07/24 17:26:30;;;;;;;9.60;7.55;;;;;;;-145.68;49.20;71373.66;10494546;28;20206;-69
2023/07/24 17:31:31;;;;;;;13.48;7.28;;;;;;;-145.68;50.31;71371.66;10494330;28;20199;-70
2023/07/24 17:36:32;;;;;;;11.90;7.57;;;;;;;-145.68;49.21;71391.63;10475914;28;20234;-69
2023/07/24 17:41:32;;;;;;;9.48;7.05;;;;;;;-145.68;49.07;71397.63;10502750;28;20352;-70
2023/07/24 17:46:33;;;;;;;8.80;6.65;;;;;;;-145.68;49.82;71413.59;10501917;28;20199;-69
2023/07/24 17:51:33;;;;;;;10.32;7.20;;;;;;;-145.68;49.53;71413.59;10502296;28;20203;-69
2023/07/24 17:56:33;;;;;;;10.30;7.18;;;;;;;-145.68;50.26;71425.59;10501723;28;20207;-69
2023/07/24 18:01:35;;;;;;;9.50;6.45;;;;;;;-145.68;50.74;71441.56;10501862;28;20313;-70
2023/07/24 18:06:35;;;;;;;9.30;7.05;;;;;;;-145.68;50.52;71467.53;10501035;28;20334;-70
2023/07/24 18:11:35;;;;;;;11.27;7.40;;;;;;;-145.68;51.14;71481.53;10501123;28;20260;-69
2023/07/24 18:16:36;;;;;;;9.98;7.05;;;;;;;-145.68;51.36;71539.47;10500523;28;20202;-69
2023/07/24 18:21:36;;;;;;;9.20;6.18;;;;;;;-145.68;50.63;71521.47;10500558;28;20187;-69
2023/07/24 18:26:36;;;;;;;7.75;6.38;;;;;;;-145.68;51.08;71533.47;10499940;28;20202;-69
2023/07/24 18:31:37;;;;;;;11.52;7.20;;;;;;;-145.68;51.87;71553.44;10500010;28;20282;-70
2023/07/24 18:36:37;;;;;;;10.57;6.45;;;;;;;-145.68;52.04;71587.41;10499762;28;20572;-69
2023/07/24 18:41:37;;;;;;;9.68;7.05;;;;;;;-145.68;52.14;71569.44;10499708;28;20583;-70
2023/07/24 18:46:38;;;;;;;7.80;6.18;;;;;;;-145.68;52.71;71589.41;10499165;28;20195;-70
2023/07/24 18:51:38;;;;;;;13.50;6.38;;;;;;;-145.68;53.22;71611.38;10498207;28;20206;-70
2023/07/24 18:56:38;;;;;;;7.95;6.50;;;;;;;-145.68;54.07;71645.34;10498970;28;20244;-71
2023/07/24 19:01:39;;;;;;;8.35;5.97;;;;;;;-145.68;54.53;71683.31;10499108;28;20199;-70
2023/07/24 19:06:39;;;;;;;8.23;6.57;;;;;;;-145.68;54.18;71653.34;10498061;28;20721;-71
2023/07/24 19:11:40;;;;;;;8.73;6.45;;;;;;;-145.68;54.43;71657.34;10498868;28;20619;-69
2023/07/24 19:16:40;;;;;;;9.63;6.60;;;;;;;-145.68;55.06;71687.31;10480139;28;20206;-70
2023/07/24 19:21:41;;;;;;;10.88;6.78;;;;;;;-145.68;56.52;71725.25;10498452;28;20198;-70
2023/07/24 19:26:41;;;;;;;8.20;6.40;;;;;;;-145.68;57.03;71745.25;10497649;28;20201;-70
2023/07/24 19:31:41;;;;;;;15.05;5.22;;;;;;;-145.68;55.16;71759.22;10497764;28;20211;-70
2023/07/24 19:36:42;;;;;;;20.65;4.28;;;;;;;-145.68;55.13;71803.19;10497587;28;20218;-69
2023/07/24 19:41:43;;;;;;;30.67;4.25;;;;;;;-145.68;55.38;71877.09;10497328;28;20580;-69
2023/07/24 19:46:43;;;;;;;20.25;3.63;;;;;;;-145.68;56.72;71937.03;10497008;28;20306;-68
2023/07/24 19:51:43;;;;;;;13.70;3.08;;;;;;;-145.68;58.45;72054.94;10497161;28;20195;-69
2023/07/24 19:56:44;;;;;;;10.23;3.10;;;;;;;-145.68;60.37;72108.88;10496586;28;20302;-68
2023/07/24 20:01:44;;;;;;;4.30;2.03;;;;;;;-145.68;60.39;72108.88;10478745;28;20222;-69
2023/07/24 20:06:45;;;;;;;9.35;3.38;;;;;;;-145.68;60.85;72096.88;10495684;28;20264;-69
2023/07/24 20:11:45;;;;;;;12.52;2.72;;;;;;;-145.68;61.90;72130.84;10496670;28;20199;-69
2023/07/24 20:16:46;;;;;;;8.73;3.13;;;;;;;-145.68;61.95;72096.88;10495669;28;20223;-69
2023/07/24 20:21:46;;;;;;;16.92;3.03;;;;;;;-145.68;62.47;72134.84;10496074;28;20647;-70
2023/07/24 20:26:46;;;;;;;9.15;2.55;;;;;;;-145.68;63.42;72130.84;10495335;28;20642;-69
2023/07/24 20:31:47;;;;;;;11.48;2.70;;;;;;;-145.68;65.05;72168.81;10495606;28;20306;-69
2023/07/24 20:36:47;;;;;;;4.82;2.25;;;;;;;-145.68;65.48;72170.81;10495304;28;20219;-69
2023/07/24 20:41:48;;;;;;;6.03;2.65;;;;;;;-145.68;66.47;72176.81;10495408;28;20294;-69
2023/07/24 20:46:48;;;;;;;3.80;2.30;;;;;;;-145.68;66.79;72166.81;10494866;28;20227;-69
2023/07/24 20:51:49;;;;;;;4.82;2.30;;;;;;;-145.68;67.77;72194.78;10494886;28;20214;-69
2023/07/24 20:56:49;;;;;;;4.55;2.38;;;;;;;-145.68;69.32;72216.78;10494500;28;20273;-70
2023/07/24 21:01:50;;;;;;;5.13;3.20;;;;;;;-145.68;74.63;72272.72;10494786;28;20199;-67
2023/07/24 21:06:50;;;;;;;6.95;3.10;;;;;;;-145.68;100.00;72432.59;10493602;28;20243;-67
2023/07/24 21:11:51;;;;;;;5.28;3.03;;;;;;;-145.68;100.00;72504.53;10493798;28;20208;-67
2023/07/24 21:16:51;;;;;;;5.43;3.33;;;;;;;-145.68;100.00;72518.50;10502586;22;20262;-66
2023/07/24 21:21:52;;;;;;;4.43;3.10;;;;;;;-145.68;100.00;72524.50;10457408;28;20986;-66
2023/07/24 21:26:52;;;;;;;3.72;2.58;;;;;;;-145.68;100.00;72528.50;10454105;28;20228;-66
2023/07/24 21:31:53;;;;;;;6.78;3.35;;;;;;;-145.68;100.00;72538.50;10453384;28;20211;-65
2023/07/24 21:36:56;;;;;;;4.68;3.03;;;;;;;-145.68;100.00;72546.47;10463567;28;20279;-64
2023/07/24 21:41:57;;;;;;;5.35;3.17;;;;;;;-145.68;100.00;72566.47;10507183;28;20206;-66
2023/07/24 21:47:06;;;;;;;3.92;3.28;;;;;;;-145.68;100.00;72580.47;10505065;28;20225;-66
2023/07/24 21:52:07;;;;;;;3.58;3.03;;;;;;;-145.68;100.00;72602.44;10493759;28;20197;-66
2023/07/24 21:57:08;;;;;;;4.45;2.90;;;;;;;-145.68;100.00;72606.44;10493485;28;20211;-66
2023/07/24 22:02:08;;;;;;;6.05;3.80;;;;;;;-145.68;100.00;72600.44;10493905;28;20282;-66
2023/07/24 22:07:09;;;;;;;5.85;3.10;;;;;;;-145.68;100.00;72592.44;10493734;28;20235;-65
2023/07/24 22:12:09;;;;;;;3.58;3.03;;;;;;;-145.68;100.00;72592.44;10494195;28;20203;-65
2023/07/24 22:17:09;;;;;;;3.88;3.35;;;;;;;-145.68;100.00;72586.44;10493375;28;20314;-65
2023/07/24 22:22:10;;;;;;;5.07;2.95;;;;;;;-145.68;100.00;72596.44;10473838;28;20272;-65
2023/07/24 22:27:10;;;;;;;6.03;3.33;;;;;;;-145.68;100.00;72580.47;10458921;28;20235;-66
2023/07/24 22:32:11;;;;;;;5.05;3.20;;;;;;;-145.68;100.00;72590.44;10459767;28;20192;-66
2023/07/24 22:37:11;;;;;;;6.80;3.05;;;;;;;-145.68;100.00;72572.47;10459408;28;20231;-66
2023/07/24 22:42:11;;;;;;;6.28;3.42;;;;;;;-145.68;100.00;72586.44;10459128;28;20686;-65
2023/07/24 22:47:12;;;;;;;6.32;3.67;;;;;;;-145.68;100.00;72596.44;10459115;28;20567;-66
2023/07/24 22:52:12;;;;;;;4.05;3.47;;;;;;;-145.68;100.00;72596.44;10458774;28;20215;-65
2023/07/24 22:57:12;;;;;;;5.38;2.90;;;;;;;-145.68;100.00;72594.44;10458910;28;20216;-65
2023/07/24 23:02:13;;;;;;;4.30;3.53;;;;;;;-145.68;100.00;72606.44;10458518;28;20199;-65
2023/07/24 23:07:13;;;;;;;4.60;3.25;;;;;;;-145.68;100.00;72576.47;10458245;28;20235;-65
2023/07/24 23:12:14;;;;;;;4.57;3.35;;;;;;;-145.68;100.00;72576.47;10458121;28;20227;-66
2023/07/24 23:17:14;;;;;;;3.45;3.15;;;;;;;-145.68;100.00;72610.44;10457366;28;20247;-65
2023/07/24 23:22:14;;;;;;;5.45;3.50;;;;;;;-145.68;100.00;72618.44;10457763;28;20208;-65